Time;durP1;ratioP1;P1;durP2;ratioP2;P2;SDS_P1;SDS_P2;PMS_P1;PMS_P2;Temp;Humidity;BMP_temperature;BMP_pressure;BME280_temperature;BME280_humidity;BME280_pressure;Samples;Min_cycle;Max_cycle;Signal;HPM_P1;HPM_P2
2022/11/15 00:02:39;;;;;;;;;;;;;;;25.82;56.26;97625.52;612275;232;41114;-65
2022/11/15 00:05:25;;;;;;;;;;;;;;;25.82;55.67;97620.12;612299;232;36912;-66
2022/11/15 00:08:11;;;;;;;;;;;;;;;25.80;54.45;97610.73;612317;232;37211;-66
2022/11/15 00:10:57;;;;;;;;;;;;;;;25.79;55.95;97620.70;612342;232;41031;-67
2022/11/15 00:13:43;;;;;;;;;;;;;;;25.78;56.05;97608.34;612285;232;36816;-65
2022/11/15 00:16:29;;;;;;;;;;;;;;;25.78;54.47;97613.73;612298;232;39920;-66
2022/11/15 00:19:14;;;;;;;;;;;;;;;25.77;55.22;97612.11;612300;232;41099;-66
2022/11/15 00:22:00;;;;;;;;;;;;;;;25.77;55.12;97606.73;612288;232;40977;-66
2022/11/15 00:24:45;;;;;;;;;;;;;;;25.77;56.37;97605.93;612252;232;37206;-66
2022/11/15 00:27:31;;;;;;;;;;;;;;;25.76;55.56;97605.13;612272;232;36999;-66
2022/11/15 00:30:17;;;;;;;;;;;;;;;25.76;55.31;97599.75;612303;232;36818;-66
2022/11/15 00:33:06;;;;;;;;;;;;;;;25.75;56.60;97602.72;612259;232;37345;-66
2022/11/15 00:35:52;;;;;;;;;;;;;;;25.74;54.51;97601.13;612304;232;38478;-66
2022/11/15 00:38:38;;;;;;;;;;;;;;;25.74;55.03;97591.16;612342;232;39838;-66
2022/11/15 00:41:24;;;;;;;;;;;;;;;25.74;55.45;97585.77;612333;232;40215;-66
2022/11/15 00:44:10;;;;;;;;;;;;;;;25.73;55.53;97583.35;612301;232;40949;-66
2022/11/15 00:46:55;;;;;;;;;;;;;;;25.73;55.60;97583.35;612281;232;36908;-67
2022/11/15 00:49:41;;;;;;;;;;;;;;;25.72;55.50;97581.76;611868;232;37115;-67
2022/11/15 00:52:27;;;;;;;;;;;;;;;25.70;55.69;97584.76;610935;232;37298;-67
2022/11/15 00:55:19;;;;;;;;;;;;;;;25.70;56.51;97579.38;610971;232;41162;-67
2022/11/15 00:58:05;;;;;;;;;;;;;;;25.68;55.29;97582.34;610971;232;38657;-65
2022/11/15 01:00:51;;;;;;;;;;;;;;;25.67;55.97;97583.44;610960;232;37078;-70
2022/11/15 01:03:37;;;;;;;;;;;;;;;25.67;54.60;97579.92;610958;232;39849;-70
2022/11/15 01:06:23;;;;;;;;;;;;;;;25.67;54.88;97578.06;610956;232;37236;-70
2022/11/15 01:09:09;;;;;;;;;;;;;;;25.67;54.22;97579.92;611022;232;36811;-70
2022/11/15 01:11:54;;;;;;;;;;;;;;;25.65;55.39;97574.84;611049;232;36933;-70
2022/11/15 01:14:40;;;;;;;;;;;;;;;25.64;55.30;97575.91;610964;232;41057;-70
2022/11/15 01:17:26;;;;;;;;;;;;;;;25.64;54.18;97567.84;610995;232;40831;-70
2022/11/15 01:20:11;;;;;;;;;;;;;;;25.63;53.51;97562.77;610962;232;39743;-71
2022/11/15 01:22:57;;;;;;;;;;;;;;;25.63;54.27;97563.55;610954;232;37155;-70
2022/11/15 01:25:43;;;;;;;;;;;;;;;25.61;55.12;97565.72;611008;232;38337;-70
2022/11/15 01:28:36;;;;;;;;;;;;;;;25.61;55.69;97563.03;610983;232;36844;-71
2022/11/15 01:31:22;;;;;;;;;;;;;;;25.60;56.32;97566.03;610969;232;39661;-71
2022/11/15 01:34:07;;;;;;;;;;;;;;;25.59;57.31;97561.72;610984;232;41326;-71
2022/11/15 01:36:53;;;;;;;;;;;;;;;25.59;56.88;97559.03;610970;232;36957;-71
2022/11/15 01:39:39;;;;;;;;;;;;;;;25.57;56.41;97559.33;611007;232;41334;-71
2022/11/15 01:42:24;;;;;;;;;;;;;;;25.56;57.41;97563.09;611012;232;37084;-71
2022/11/15 01:45:12;;;;;;;;;;;;;;;25.56;57.35;97563.09;610974;232;40016;-71
2022/11/15 01:47:58;;;;;;;;;;;;;;;25.54;56.71;97567.19;610909;232;41327;-71
2022/11/15 01:50:44;;;;;;;;;;;;;;;25.54;56.98;97561.80;610917;232;37038;-70
2022/11/15 01:53:30;;;;;;;;;;;;;;;25.53;56.67;97557.49;610945;232;39704;-66
2022/11/15 01:56:20;;;;;;;;;;;;;;;25.52;56.30;97561.28;610934;231;37198;-65
2022/11/15 01:59:07;;;;;;;;;;;;;;;25.51;56.98;97554.28;610953;232;37154;-65
2022/11/15 02:01:53;;;;;;;;;;;;;;;25.51;57.23;97559.66;610953;232;36814;-65
2022/11/15 02:04:40;;;;;;;;;;;;;;;25.50;57.08;97555.37;610933;232;37119;-65
2022/11/15 02:07:26;;;;;;;;;;;;;;;25.48;57.43;97552.96;610983;232;36969;-65
2022/11/15 02:10:13;;;;;;;;;;;;;;;25.48;58.46;97542.20;610952;232;41321;-70
2022/11/15 02:13:00;;;;;;;;;;;;;;;25.47;56.90;97544.09;610981;232;37242;-70
2022/11/15 02:15:53;;;;;;;;;;;;;;;25.45;55.97;97540.91;610973;232;37297;-70
2022/11/15 02:18:40;;;;;;;;;;;;;;;25.45;57.07;97540.91;603143;232;41046;-70
2022/11/15 02:21:30;;;;;;;;;;;;;;;25.45;56.91;97543.60;610943;232;41412;-70
2022/11/15 02:24:34;;;;;;;;;;;;;;;25.45;56.55;97540.91;610960;232;36971;-70
2022/11/15 02:27:24;;;;;;;;;;;;;;;25.45;58.06;97535.53;610925;232;41069;-70
2022/11/15 02:30:17;;;;;;;;;;;;;;;25.44;55.78;97533.91;610934;232;41479;-70
2022/11/15 02:33:21;;;;;;;;;;;;;;;25.43;55.69;97531.52;610942;232;37044;-66
2022/11/15 02:36:08;;;;;;;;;;;;;;;25.43;56.66;97536.91;610983;232;41266;-65
2022/11/15 02:38:56;;;;;;;;;;;;;;;25.41;56.61;97542.56;610952;232;36853;-65
2022/11/15 02:41:43;;;;;;;;;;;;;;;25.40;57.07;97537.45;610945;232;41497;-65
2022/11/15 02:44:35;;;;;;;;;;;;;;;25.39;57.58;97535.86;610898;232;39961;-65
2022/11/15 02:47:22;;;;;;;;;;;;;;;25.39;57.02;97525.89;610915;232;41632;-65
2022/11/15 02:50:09;;;;;;;;;;;;;;;25.38;57.48;97535.06;609857;232;37064;-65
2022/11/15 02:52:55;;;;;;;;;;;;;;;25.37;56.09;97530.78;608594;233;36919;-66
2022/11/15 02:55:48;;;;;;;;;;;;;;;25.36;57.08;97531.85;608631;233;37122;-66
2022/11/15 02:58:48;;;;;;;;;;;;;;;25.36;57.77;97531.05;608614;233;41136;-66
2022/11/15 03:01:42;;;;;;;;;;;;;;;25.35;57.21;97524.09;608648;233;36820;-66
2022/11/15 03:04:38;;;;;;;;;;;;;;;25.34;58.11;97534.02;608641;233;41633;-71
2022/11/15 03:07:25;;;;;;;;;;;;;;;25.33;56.48;97528.95;608633;233;37186;-71
2022/11/15 03:10:31;;;;;;;;;;;;;;;25.32;57.24;97530.02;608602;233;41081;-71
2022/11/15 03:13:21;;;;;;;;;;;;;;;25.31;57.37;97526.52;608556;233;41453;-71
2022/11/15 03:16:08;;;;;;;;;;;;;;;25.31;56.37;97523.84;608642;233;41025;-71
2022/11/15 03:18:55;;;;;;;;;;;;;;;25.30;57.37;97524.14;608632;233;39844;-71
2022/11/15 03:21:41;;;;;;;;;;;;;;;25.29;58.15;97517.97;605182;233;39252;-71
2022/11/15 03:24:28;;;;;;;;;;;;;;;25.28;57.04;97518.23;608623;233;41263;-71
2022/11/15 03:27:15;;;;;;;;;;;;;;;25.27;56.96;97522.83;606163;234;39971;-71
2022/11/15 03:30:02;;;;;;;;;;;;;;;25.27;56.22;97517.44;601845;236;37221;-71
2022/11/15 03:32:49;;;;;;;;;;;;;;;25.26;57.55;97521.20;596882;238;40942;-71
2022/11/15 03:35:35;;;;;;;;;;;;;;;25.26;56.85;97521.20;601891;236;38402;-71
2022/11/15 03:38:25;;;;;;;;;;;;;;;25.25;56.08;97516.92;608657;233;37142;-71
2022/11/15 03:41:13;;;;;;;;;;;;;;;25.24;55.99;97518.02;606176;234;37318;-71
2022/11/15 03:44:12;;;;;;;;;;;;;;;25.22;56.75;97510.22;601918;236;41094;-71
2022/11/15 03:46:59;;;;;;;;;;;;;;;25.22;56.36;97512.12;596888;238;37203;-71
2022/11/15 03:49:49;;;;;;;;;;;;;;;25.21;55.90;97507.84;603042;234;41201;-71
2022/11/15 03:52:35;;;;;;;;;;;;;;;25.21;56.04;97502.45;611187;232;38435;-72
2022/11/15 03:55:21;;;;;;;;;;;;;;;25.20;55.84;97500.84;606129;234;37215;-71
2022/11/15 03:58:07;;;;;;;;;;;;;;;25.18;56.14;97495.76;612986;231;37084;-66
2022/11/15 04:00:53;;;;;;;;;;;;;;;25.19;57.68;97501.94;612997;231;39594;-66
2022/11/15 04:03:39;;;;;;;;;;;;;;;25.18;56.86;97495.76;612970;231;39904;-66
2022/11/15 04:06:25;;;;;;;;;;;;;;;25.19;56.46;97496.55;612997;231;37077;-65
2022/11/15 04:09:10;;;;;;;;;;;;;;;25.17;56.67;97496.83;612946;231;41182;-66
2022/11/15 04:11:57;;;;;;;;;;;;;;;25.16;57.51;97487.17;612971;231;37349;-65
2022/11/15 04:15:06;;;;;;;;;;;;;;;25.16;55.52;97495.23;613037;231;41027;-69
2022/11/15 04:17:30;;;;;;;;;;;;;;;25.15;57.55;97498.20;613009;231;40977;-71
2022/11/15 04:26:27;;;;;;;;;;;;;;;25.14;56.52;97483.92;613034;231;39719;-71
2022/11/15 04:32:17;;;;;;;;;;;;;;;25.11;56.39;97478.33;612974;231;39852;-70
2022/11/15 04:35:03;;;;;;;;;;;;;;;25.11;57.08;97475.64;612956;231;39991;-71
2022/11/15 04:37:49;;;;;;;;;;;;;;;25.10;56.56;97479.40;612930;231;37109;-70
2022/11/15 04:40:34;;;;;;;;;;;;;;;25.09;57.34;97467.05;612972;231;39990;-65
2022/11/15 04:43:20;;;;;;;;;;;;;;;25.08;55.68;97470.84;612963;231;41072;-65
2022/11/15 04:46:05;;;;;;;;;;;;;;;25.07;56.35;97471.91;612975;231;37232;-65
2022/11/15 04:48:52;;;;;;;;;;;;;;;25.07;56.64;97477.28;612932;231;37009;-66
2022/11/15 04:51:37;;;;;;;;;;;;;;;25.07;56.18;97479.97;612977;231;36825;-66
2022/11/15 04:54:23;;;;;;;;;;;;;;;25.06;56.56;97467.62;612995;231;37240;-66
2022/11/15 04:57:09;;;;;;;;;;;;;;;25.05;57.30;97464.14;613036;231;41041;-65
2022/11/15 04:59:54;;;;;;;;;;;;;;;25.03;55.67;97458.24;613021;231;36825;-65
2022/11/15 05:05:44;;;;;;;;;;;;;;;25.02;56.05;97457.45;612932;231;37398;-65
2022/11/15 05:08:30;;;;;;;;;;;;;;;25.01;55.82;97463.89;612978;231;36929;-65
2022/11/15 05:11:15;;;;;;;;;;;;;;;25.00;55.80;97459.61;612960;231;37219;-65
2022/11/15 05:14:01;;;;;;;;;;;;;;;24.99;57.34;97458.02;612960;231;39959;-65
2022/11/15 05:16:48;;;;;;;;;;;;;;;24.98;55.93;97459.09;612961;231;41027;-65
2022/11/15 05:19:34;;;;;;;;;;;;;;;25.00;58.14;97464.20;612957;231;41292;-65
2022/11/15 05:22:19;;;;;;;;;;;;;;;24.97;57.00;97462.87;612938;231;37086;-66
2022/11/15 05:25:05;;;;;;;;;;;;;;;24.97;57.78;97462.87;613011;231;35881;-65
2022/11/15 05:27:51;;;;;;;;;;;;;;;24.95;56.16;97459.67;612994;231;41156;-65
2022/11/15 05:30:36;;;;;;;;;;;;;;;24.95;56.80;97467.73;613007;231;40992;-65
2022/11/15 05:33:22;;;;;;;;;;;;;;;24.94;57.30;97471.52;612969;231;40957;-65
2022/11/15 05:36:16;;;;;;;;;;;;;;;24.94;57.42;97474.20;612957;231;37490;-65
2022/11/15 05:39:02;;;;;;;;;;;;;;;24.95;58.01;97478.48;612930;231;41161;-65
2022/11/15 05:41:48;;;;;;;;;;;;;;;24.93;57.58;97480.66;612978;231;39700;-66
2022/11/15 05:44:35;;;;;;;;;;;;;;;24.93;57.67;97479.86;612955;231;37352;-66
2022/11/15 05:47:25;;;;;;;;;;;;;;;24.93;57.09;97491.41;612956;231;36982;-65
2022/11/15 05:50:12;;;;;;;;;;;;;;;24.91;54.32;97477.47;610884;231;41302;-65
2022/11/15 05:52:57;;;;;;;;;;;;;;;24.93;57.02;97485.23;608688;233;36871;-65
2022/11/15 05:55:43;;;;;;;;;;;;;;;24.91;57.01;97490.91;608645;233;36838;-65
2022/11/15 05:58:29;;;;;;;;;;;;;;;24.91;56.35;97487.40;608620;233;36816;-65
2022/11/15 06:01:14;;;;;;;;;;;;;;;24.93;57.33;97495.98;608607;233;41172;-65
2022/11/15 06:04:00;;;;;;;;;;;;;;;24.92;56.43;97499.77;608568;233;36845;-65
2022/11/15 06:06:46;;;;;;;;;;;;;;;24.94;59.31;97495.72;608645;233;36822;-66
2022/11/15 06:09:31;;;;;;;;;;;;;;;24.93;56.31;97496.78;608612;233;36923;-66
2022/11/15 06:12:17;;;;;;;;;;;;;;;24.94;55.82;97489.55;608603;233;36748;-66
2022/11/15 06:15:03;;;;;;;;;;;;;;;24.93;55.55;97496.78;608621;233;36979;-66
2022/11/15 06:17:49;;;;;;;;;;;;;;;24.96;56.97;97508.86;608578;233;36952;-66
2022/11/15 06:20:34;;;;;;;;;;;;;;;24.97;56.29;97500.52;608598;233;36841;-66
2022/11/15 06:23:20;;;;;;;;;;;;;;;24.98;57.45;97498.63;608469;233;36816;-66
2022/11/15 06:26:05;;;;;;;;;;;;;;;24.98;57.92;97507.48;607451;233;41369;-66
2022/11/15 06:28:51;;;;;;;;;;;;;;;24.98;59.07;97501.31;607871;233;41433;-66
2022/11/15 06:31:37;;;;;;;;;;;;;;;24.99;58.99;97506.42;608597;233;41010;-65
2022/11/15 06:34:23;;;;;;;;;;;;;;;25.00;57.90;97507.22;607976;233;37094;-67
2022/11/15 06:37:08;;;;;;;;;;;;;;;25.01;59.92;97504.23;608563;233;42262;-65
2022/11/15 06:39:54;;;;;;;;;;;;;;;25.02;59.20;97502.36;608615;233;39725;-65
2022/11/15 06:42:40;;;;;;;;;;;;;;;25.03;58.56;97499.38;608600;233;37225;-65
2022/11/15 06:45:26;;;;;;;;;;;;;;;25.05;58.43;97500.99;608585;233;36960;-69
2022/11/15 06:48:11;;;;;;;;;;;;;;;25.05;58.00;97495.61;608502;233;36829;-69
2022/11/15 06:50:58;;;;;;;;;;;;;;;25.07;59.23;97496.11;609547;232;36813;-70
2022/11/15 06:53:44;;;;;;;;;;;;;;;25.07;56.68;97493.42;609831;233;36959;-70
2022/11/15 06:56:29;;;;;;;;;;;;;;;25.08;58.51;97493.15;609742;233;36821;-70
2022/11/15 06:59:15;;;;;;;;;;;;;;;25.10;59.36;97492.84;609823;232;37479;-73
2022/11/15 07:02:01;;;;;;;;;;;;;;;25.10;58.61;97488.29;609815;233;41114;-71
2022/11/15 07:04:47;;;;;;;;;;;;;;;25.07;51.48;97477.28;608989;232;40996;-72
2022/11/15 07:07:32;;;;;;;;;;;;;;;25.12;54.34;97482.61;609818;233;37206;-73
2022/11/15 07:10:18;;;;;;;;;;;;;;;25.15;53.99;97473.99;609814;232;36958;-71
2022/11/15 07:13:04;;;;;;;;;;;;;;;25.19;53.76;97478.52;609824;233;36841;-74
2022/11/15 07:15:50;;;;;;;;;;;;;;;25.21;54.74;97464.80;609738;233;39804;-66
2022/11/15 07:18:36;;;;;;;;;;;;;;;25.23;51.35;97460.70;609785;233;36832;-68
2022/11/15 07:21:21;;;;;;;;;;;;;;;25.26;52.42;97462.02;609886;233;36936;-71
2022/11/15 07:24:07;;;;;;;;;;;;;;;25.25;49.59;97453.16;609853;233;36864;-72
2022/11/15 07:26:53;;;;;;;;;;;;;;;25.25;54.56;97452.36;609848;233;41022;-73
2022/11/15 07:29:38;;;;;;;;;;;;;;;25.28;51.77;97457.16;609403;233;39727;-72
2022/11/15 07:32:24;;;;;;;;;;;;;;;25.30;52.54;97446.13;609400;233;36939;-71
2022/11/15 07:35:10;;;;;;;;;;;;;;;25.31;50.73;97443.13;609430;233;41252;-71
2022/11/15 07:37:59;;;;;;;;;;;;;;;25.34;50.61;97447.13;609377;233;38356;-71
2022/11/15 07:40:46;;;;;;;;;;;;;;;25.37;50.59;97449.25;609370;233;36949;-73
2022/11/15 07:43:33;;;;;;;;;;;;;;;25.39;51.14;97453.25;609455;233;36506;-70
2022/11/15 07:46:19;;;;;;;;;;;;;;;25.40;52.14;97449.48;609402;233;38413;-74
2022/11/15 07:49:04;;;;;;;;;;;;;;;25.41;51.07;97445.70;609383;233;36977;-68
2022/11/15 07:51:50;;;;;;;;;;;;;;;25.44;52.17;97447.01;607405;233;40892;-71
2022/11/15 07:54:35;;;;;;;;;;;;;;;25.44;51.87;97447.80;607457;233;41198;-64
2022/11/15 07:57:21;;;;;;;;;;;;;;;25.46;51.45;97448.33;607551;233;41137;-64
2022/11/15 08:00:07;;;;;;;;;;;;;;;25.50;53.14;97445.05;607519;233;36721;-65
2022/11/15 08:02:53;;;;;;;;;;;;;;;25.50;51.73;97445.84;607505;233;36954;-64
2022/11/15 08:05:39;;;;;;;;;;;;;;;25.51;52.86;97447.47;607492;233;40007;-66
2022/11/15 08:08:25;;;;;;;;;;;;;;;25.52;52.00;97443.67;607482;233;40879;-64
2022/11/15 08:11:11;;;;;;;;;;;;;;;25.54;52.22;97438.02;607518;233;36950;-64
2022/11/15 08:13:57;;;;;;;;;;;;;;;25.55;52.37;97436.91;607512;233;36734;-64
2022/11/15 08:16:42;;;;;;;;;;;;;;;25.57;52.62;97432.05;607506;233;35752;-64
2022/11/15 08:19:28;;;;;;;;;;;;;;;25.57;52.41;97430.15;607477;233;36948;-64
2022/11/15 08:22:14;;;;;;;;;;;;;;;25.58;52.97;97428.25;607502;233;37169;-64
2022/11/15 08:24:59;;;;;;;;;;;;;;;25.58;52.79;97430.94;607575;233;36748;-64
2022/11/15 08:27:45;;;;;;;;;;;;;;;25.59;52.18;97429.84;607457;233;36975;-64
2022/11/15 08:30:31;;;;;;;;;;;;;;;25.59;53.32;97427.15;607472;233;41281;-66
2022/11/15 08:33:17;;;;;;;;;;;;;;;25.63;53.55;97433.56;607539;233;36835;-65
2022/11/15 08:36:02;;;;;;;;;;;;;;;25.63;52.41;97425.49;607421;233;36854;-64
2022/11/15 08:38:48;;;;;;;;;;;;;;;25.63;53.77;97426.28;607507;233;36961;-65
2022/11/15 08:41:40;;;;;;;;;;;;;;;25.64;54.40;97427.88;607497;233;36825;-66
2022/11/15 08:44:23;;;;;;;;;;;;;;;25.63;53.44;97423.59;607432;233;36856;-65
2022/11/15 08:47:10;;;;;;;;;;;;;;;25.65;52.92;97428.70;607526;233;36876;-65
2022/11/15 08:49:56;;;;;;;;;;;;;;;25.65;53.36;97421.42;608703;231;39563;-63
2022/11/15 08:52:41;;;;;;;;;;;;;;;25.68;55.12;97414.66;611082;232;38530;-64
2022/11/15 08:55:27;;;;;;;;;;;;;;;25.68;55.10;97414.66;611119;232;36922;-64
2022/11/15 08:58:13;;;;;;;;;;;;;;;25.67;54.14;97408.48;611062;232;36814;-65
2022/11/15 09:00:58;;;;;;;;;;;;;;;25.69;54.82;97408.17;611067;232;41341;-64
2022/11/15 09:03:44;;;;;;;;;;;;;;;25.67;55.26;97400.41;610994;232;38386;-65
2022/11/15 09:06:30;;;;;;;;;;;;;;;25.69;55.07;97390.12;611002;232;36446;-65
2022/11/15 09:09:15;;;;;;;;;;;;;;;25.72;55.57;97388.73;611063;232;37115;-63
2022/11/15 09:12:01;;;;;;;;;;;;;;;25.71;53.56;97384.45;610971;232;40086;-65
2022/11/15 09:14:47;;;;;;;;;;;;;;;25.71;53.88;97376.38;611035;232;37073;-64
2022/11/15 09:17:33;;;;;;;;;;;;;;;25.71;55.77;97365.62;611079;232;35786;-66
2022/11/15 09:20:18;;;;;;;;;;;;;;;25.72;55.44;97369.89;611008;232;36820;-66
2022/11/15 09:23:05;;;;;;;;;;;;;;;25.73;52.51;97366.13;611068;232;36748;-65
2022/11/15 09:25:50;;;;;;;;;;;;;;;25.74;54.21;97361.55;611038;232;36903;-65
2022/11/15 09:28:36;;;;;;;;;;;;;;;25.73;53.55;97346.47;611039;232;36842;-66
2022/11/15 09:31:22;;;;;;;;;;;;;;;25.75;53.59;97350.46;611049;232;36794;-66
2022/11/15 09:34:08;;;;;;;;;;;;;;;25.75;55.72;97342.39;611001;232;36819;-65
2022/11/15 09:36:53;;;;;;;;;;;;;;;25.75;53.27;97344.28;611033;232;36688;-65
2022/11/15 09:39:39;;;;;;;;;;;;;;;25.77;53.20;97334.83;611010;232;36735;-65
2022/11/15 09:42:26;;;;;;;;;;;;;;;25.78;54.71;97331.06;610983;232;36816;-66
2022/11/15 09:45:17;;;;;;;;;;;;;;;25.78;53.61;97327.54;611010;232;37352;-64
2022/11/15 09:48:04;;;;;;;;;;;;;;;25.79;52.88;97319.19;610984;232;36947;-66
2022/11/15 09:50:46;;;;;;;;;;;;;;;25.81;53.23;97319.70;610231;232;43676;-66
2022/11/15 09:53:14;;;;;;;;;;;;;;;25.81;55.20;97317.00;609211;232;62906;-65
2022/11/15 09:55:43;;;;;;;;;;;;;;;25.83;53.56;97319.38;608333;233;65169;-67
2022/11/15 09:58:12;;;;;;;;;;;;;;;25.83;53.33;97312.13;609988;232;63107;-65
2022/11/15 10:00:41;;;;;;;;;;;;;;;25.84;52.89;97305.67;603442;235;62872;-74
2022/11/15 10:03:13;;;;;;;;;;;;;;;25.87;54.29;97313.16;603340;235;69280;-68
2022/11/15 10:05:45;;;;;;;;;;;;;;;25.87;55.23;97305.08;603443;235;66212;-72
2022/11/15 10:08:17;;;;;;;;;;;;;;;25.87;53.80;97304.28;610213;232;65098;-73
2022/11/15 10:10:49;;;;;;;;;;;;;;;25.88;54.97;97298.58;607256;232;62692;-72
2022/11/15 10:13:24;;;;;;;;;;;;;;;25.90;54.03;97299.09;610962;232;62990;-72
2022/11/15 10:15:53;;;;;;;;;;;;;;;25.94;54.70;97301.19;610875;231;62900;-73
2022/11/15 10:18:37;;;;;;;;;;;;;;;25.94;54.45;97304.68;610119;232;65235;-75
2022/11/15 10:21:12;;;;;;;;;;;;;;;25.95;54.80;97290.14;603432;235;62916;-71
2022/11/15 10:23:40;;;;;;;;;;;;;;;25.97;56.53;97297.91;608193;233;65225;-72
2022/11/15 10:26:09;;;;;;;;;;;;;;;25.97;55.10;97287.13;603542;235;64354;-72
2022/11/15 10:28:36;;;;;;;;;;;;;;;25.98;53.88;97286.84;610250;232;65065;-73
2022/11/15 10:31:05;;;;;;;;;;;;;;;25.99;51.93;97293.03;609187;232;64771;-72
2022/11/15 10:33:34;;;;;;;;;;;;;;;26.01;53.49;97282.77;595904;237;64999;-73
2022/11/15 10:36:11;;;;;;;;;;;;;;;26.03;52.92;97275.98;595189;238;65834;-67
2022/11/15 10:38:43;;;;;;;;;;;;;;;26.05;55.26;97278.36;595030;238;64854;-67
2022/11/15 10:41:12;;;;;;;;;;;;;;;26.06;52.34;97280.78;594013;237;62565;-72
2022/11/15 10:43:39;;;;;;;;;;;;;;;26.09;55.33;97280.17;595132;238;63010;-73
2022/11/15 10:46:23;;;;;;;;;;;;;;;26.11;54.59;97280.69;595069;238;64481;-73
2022/11/15 10:48:51;;;;;;;;;;;;;;;26.12;53.51;97273.40;595064;238;66247;-73
2022/11/15 10:51:28;;;;;;;;;;;;;;;26.13;54.65;97280.37;598697;237;65086;-74
2022/11/15 10:53:58;;;;;;;;;;;;;;;26.12;57.48;97270.70;599050;237;64696;-74
2022/11/15 10:56:26;;;;;;;;;;;;;;;26.14;52.50;97276.59;598748;236;65004;-74
2022/11/15 10:58:55;;;;;;;;;;;;;;;26.17;56.39;97280.59;598919;237;64996;-72
2022/11/15 11:01:24;;;;;;;;;;;;;;;26.17;54.44;97278.69;598958;237;65674;-73
2022/11/15 11:04:02;;;;;;;;;;;;;;;26.17;51.69;97265.23;598978;237;64996;-67
2022/11/15 11:06:30;;;;;;;;;;;;;;;26.19;55.30;97267.60;598935;237;65009;-72
2022/11/15 11:09:00;;;;;;;;;;;;;;;26.20;54.87;97267.32;598970;236;42925;-72
2022/11/15 11:11:48;;;;;;;;;;;;;;;26.20;55.66;97255.75;598982;237;65055;-72
2022/11/15 11:14:32;;;;;;;;;;;;;;;26.20;55.34;97253.84;598926;237;62877;-72
2022/11/15 11:17:18;;;;;;;;;;;;;;;26.23;54.49;97255.94;598957;237;62916;-73
2022/11/15 11:20:05;;;;;;;;;;;;;;;26.27;55.75;97250.74;598962;237;62768;-73
2022/11/15 11:22:34;;;;;;;;;;;;;;;26.27;55.87;97245.36;598821;236;65193;-74
2022/11/15 11:25:13;;;;;;;;;;;;;;;26.30;55.58;97237.49;598846;236;65331;-74
2022/11/15 11:27:45;;;;;;;;;;;;;;;26.32;54.30;97219.11;598998;237;62753;-73
2022/11/15 11:30:17;;;;;;;;;;;;;;;26.30;54.14;97215.94;598960;237;65491;-71
2022/11/15 11:32:48;;;;;;;;;;;;;;;26.33;56.19;97215.33;598931;236;63005;-71
2022/11/15 11:35:18;;;;;;;;;;;;;;;26.35;53.34;97205.06;598857;236;64999;-71
2022/11/15 11:37:49;;;;;;;;;;;;;;;26.37;56.67;97207.44;599025;237;65039;-71
2022/11/15 11:40:34;;;;;;;;;;;;;;;26.37;55.91;97199.35;598985;237;62483;-72
2022/11/15 11:43:09;;;;;;;;;;;;;;;26.37;55.54;97193.96;598687;236;65183;-70
2022/11/15 11:45:39;;;;;;;;;;;;;;;26.40;56.39;97187.17;598931;236;62986;-71
2022/11/15 11:48:11;;;;;;;;;;;;;;;26.42;55.69;97184.98;598939;237;63929;-71
2022/11/15 11:50:38;;;;;;;;;;;;;;;26.40;55.02;97181.78;598812;237;65507;-73
2022/11/15 11:53:10;;;;;;;;;;;;;;;26.39;55.65;97169.42;599042;237;65066;-71
2022/11/15 11:55:40;;;;;;;;;;;;;;;26.43;55.48;97171.19;598955;236;63194;-73
2022/11/15 11:58:25;;;;;;;;;;;;;;;26.45;54.73;97170.91;598871;236;62944;-72
2022/11/15 12:00:55;;;;;;;;;;;;;;;26.46;55.83;97169.79;598983;237;65023;-72
2022/11/15 12:03:30;;;;;;;;;;;;;;;26.47;56.00;97171.41;598833;236;65374;-72
2022/11/15 12:06:02;;;;;;;;;;;;;;;26.48;55.47;97162.21;598966;237;63746;-73
2022/11/15 12:08:34;;;;;;;;;;;;;;;26.48;54.20;97159.52;598583;236;63654;-72
2022/11/15 12:11:04;;;;;;;;;;;;;;;26.51;55.64;97148.95;598975;237;65093;-70
2022/11/15 12:13:36;;;;;;;;;;;;;;;26.49;56.07;97145.75;597377;237;65179;-72
2022/11/15 12:16:03;;;;;;;;;;;;;;;26.50;56.58;97141.15;598893;236;65816;-73
2022/11/15 12:18:31;;;;;;;;;;;;;;;26.49;54.54;97143.05;598788;236;65870;-72
2022/11/15 12:21:00;;;;;;;;;;;;;;;26.49;55.25;97143.05;598947;237;64989;-72
2022/11/15 12:23:31;;;;;;;;;;;;;;;26.50;54.24;97136.55;598866;236;65074;-72
2022/11/15 12:26:07;;;;;;;;;;;;;;;26.50;54.51;97138.45;598682;236;65616;-70
2022/11/15 12:28:41;;;;;;;;;;;;;;;26.49;53.50;97132.27;598721;236;63800;-72
2022/11/15 12:31:16;;;;;;;;;;;;;;;26.50;49.50;97127.67;598876;237;65128;-74
2022/11/15 12:33:48;;;;;;;;;;;;;;;26.55;52.31;97127.59;598787;236;65673;-71
2022/11/15 12:36:23;;;;;;;;;;;;;;;26.55;53.16;97124.90;598998;237;65394;-73
2022/11/15 12:38:52;;;;;;;;;;;;;;;26.55;49.52;97122.20;598903;237;65032;-72
2022/11/15 12:41:20;;;;;;;;;;;;;;;26.57;54.90;97119.98;599018;237;63254;-74
2022/11/15 12:43:48;;;;;;;;;;;;;;;26.58;53.22;97121.59;598989;237;63022;-71
2022/11/15 12:46:24;;;;;;;;;;;;;;;26.59;53.37;97120.48;598867;236;61632;-71
2022/11/15 12:48:53;;;;;;;;;;;;;;;26.59;55.21;97120.48;598407;237;66703;-72
2022/11/15 12:51:21;;;;;;;;;;;;;;;26.61;54.26;97117.49;595337;237;65281;-73
2022/11/15 12:53:49;;;;;;;;;;;;;;;26.64;52.23;97122.27;595093;238;62755;-73
2022/11/15 12:56:18;;;;;;;;;;;;;;;26.64;53.55;97114.97;595149;238;64098;-75
2022/11/15 12:58:53;;;;;;;;;;;;;;;26.65;55.50;97118.45;595051;238;62875;-74
2022/11/15 13:01:37;;;;;;;;;;;;;;;26.64;54.75;97122.27;595055;238;64872;-74
2022/11/15 13:04:28;;;;;;;;;;;;;;;26.65;55.24;97123.85;595062;237;67192;-74
2022/11/15 13:06:58;;;;;;;;;;;;;;;26.64;53.96;97117.67;594709;237;65325;-75
2022/11/15 13:09:36;;;;;;;;;;;;;;;26.64;55.01;97114.97;595086;238;65269;-75
2022/11/15 13:12:14;;;;;;;;;;;;;;;26.66;54.28;97112.78;595160;237;43136;-75
2022/11/15 13:14:59;;;;;;;;;;;;;;;26.67;56.48;97103.58;594759;238;65192;-75
2022/11/15 13:17:34;;;;;;;;;;;;;;;26.66;55.56;97099.30;595071;238;63126;-72
2022/11/15 13:20:03;;;;;;;;;;;;;;;26.66;55.36;97093.11;595086;238;65675;-74
2022/11/15 13:25:19;;;;;;;;;;;;;;;26.66;52.87;97091.21;604380;233;65149;-74
2022/11/15 13:27:48;;;;;;;;;;;;;;;26.66;55.80;97082.34;611269;232;63138;-77
2022/11/15 13:30:23;;;;;;;;;;;;;;;26.68;55.05;97074.72;611915;232;62990;-78
2022/11/15 13:32:52;;;;;;;;;;;;;;;26.69;53.07;97077.12;612067;232;64899;-76
2022/11/15 13:35:21;;;;;;;;;;;;;;;26.68;55.83;97072.02;612034;232;65779;-76
2022/11/15 13:37:49;;;;;;;;;;;;;;;26.68;54.35;97075.53;611783;232;65069;-75
2022/11/15 13:40:18;;;;;;;;;;;;;;;26.71;55.64;97080.31;612101;232;65074;-75
2022/11/15 13:42:45;;;;;;;;;;;;;;;26.72;55.07;97078.41;611974;232;65490;-75
2022/11/15 13:45:14;;;;;;;;;;;;;;;26.71;50.50;97077.61;612051;232;65146;-73
2022/11/15 13:47:42;;;;;;;;;;;;;;;26.72;55.07;97071.11;612089;232;62878;-74
2022/11/15 13:50:11;;;;;;;;;;;;;;;26.73;53.52;97071.90;608892;232;63321;-73
2022/11/15 13:52:42;;;;;;;;;;;;;;;26.73;52.44;97071.90;604805;234;63203;-74
2022/11/15 13:55:13;;;;;;;;;;;;;;;26.74;53.32;97073.51;605160;234;69360;-74
2022/11/15 13:57:51;;;;;;;;;;;;;;;26.73;52.43;97067.30;604423;234;63137;-75
2022/11/15 14:00:27;;;;;;;;;;;;;;;26.74;49.70;97062.73;604783;234;65204;-75
2022/11/15 14:02:56;;;;;;;;;;;;;;;26.73;52.95;97069.20;605168;234;65289;-74
2022/11/15 14:05:28;;;;;;;;;;;;;;;26.74;53.73;97068.12;605075;234;65700;-75
2022/11/15 14:07:58;;;;;;;;;;;;;;;26.75;52.55;97070.48;605191;234;65166;-73
2022/11/15 14:10:33;;;;;;;;;;;;;;;26.76;53.85;97071.28;602365;234;65134;-74
2022/11/15 14:13:02;;;;;;;;;;;;;;;26.75;53.08;97067.80;603773;235;65397;-72
2022/11/15 14:15:31;;;;;;;;;;;;;;;26.76;53.65;97065.89;603700;235;62904;-73
2022/11/15 14:17:59;;;;;;;;;;;;;;;26.78;52.43;97072.57;603819;235;64752;-66
2022/11/15 14:20:32;;;;;;;;;;;;;;;26.77;53.54;97072.89;603888;235;63528;-71